createdAt,value
2018-10-12T00:00:53.264Z,13.63
2018-10-12T00:03:22.095Z,12.20
2018-10-12T00:05:50.967Z,16.53
2018-10-12T00:08:19.770Z,16.43
2018-10-12T00:10:48.634Z,12.43
2018-10-12T00:13:17.467Z,16.97
2018-10-12T00:15:46.279Z,12.57
2018-10-12T00:18:15.042Z,18.47
2018-10-12T00:20:43.974Z,10.90
2018-10-12T00:23:12.747Z,11.67
2018-10-12T00:25:41.515Z,12.37
2018-10-12T00:28:10.423Z,14.00
2018-10-12T00:30:39.306Z,11.53
2018-10-12T00:33:08.082Z,28.27
2018-10-12T00:35:36.993Z,12.90
2018-10-12T00:38:05.776Z,12.80
2018-10-12T00:40:34.777Z,13.30
2018-10-12T00:43:03.647Z,12.43
2018-10-12T00:45:32.326Z,12.23
2018-10-12T00:48:01.933Z,21.77
2018-10-12T00:50:32.192Z,10.00
2018-10-12T00:53:01.459Z,12.50
2018-10-12T00:55:32.634Z,17.10
2018-10-12T00:58:01.392Z,18.80
2018-10-12T01:00:30.267Z,11.77
2018-10-12T01:02:59.183Z,30.67
2018-10-12T01:05:27.987Z,15.53
2018-10-12T01:07:56.646Z,14.83
2018-10-12T01:10:25.680Z,14.23
2018-10-12T01:12:54.527Z,11.30
2018-10-12T01:15:23.255Z,14.50
2018-10-12T01:17:52.549Z,16.80
2018-10-12T01:20:21.656Z,11.60
2018-10-12T01:22:50.575Z,11.47
2018-10-12T01:25:19.544Z,13.87
2018-10-12T01:27:48.352Z,15.37
2018-10-12T01:30:17.158Z,12.40
2018-10-12T01:32:51.223Z,12.87
2018-10-12T01:35:20.129Z,11.30
2018-10-12T01:37:48.985Z,14.20
2018-10-12T01:40:17.914Z,10.63
2018-10-12T01:42:46.724Z,13.57
2018-10-12T01:45:15.483Z,30.17
2018-10-12T01:47:44.257Z,15.23
2018-10-12T01:50:13.113Z,13.70
2018-10-12T01:52:41.914Z,13.20
2018-10-12T01:55:10.690Z,14.40
2018-10-12T01:57:39.426Z,16.53
2018-10-12T02:00:08.748Z,15.27
2018-10-12T02:02:37.527Z,15.63
2018-10-12T02:05:06.867Z,10.03
2018-10-12T02:07:35.693Z,11.73
2018-10-12T02:10:04.686Z,14.33
2018-10-12T02:12:33.370Z,18.40
2018-10-12T02:15:02.277Z,15.57
2018-10-12T02:17:31.084Z,17.50
2018-10-12T02:19:59.910Z,13.13
2018-10-12T02:22:28.761Z,20.20
2018-10-12T02:24:57.730Z,15.50
2018-10-12T02:27:26.546Z,10.43
2018-10-12T02:29:55.366Z,25.93
2018-10-12T02:32:24.242Z,12.17
2018-10-12T02:34:52.988Z,12.70
2018-10-12T02:37:21.674Z,12.17
2018-10-12T02:39:50.462Z,12.40
2018-10-12T02:42:19.237Z,15.60
2018-10-12T02:44:47.992Z,18.97
2018-10-12T02:47:16.721Z,10.83
2018-10-12T02:49:45.418Z,13.37
2018-10-12T02:52:14.332Z,10.20
2018-10-12T02:54:43.202Z,14.03
2018-10-12T02:57:11.870Z,15.17
2018-10-12T02:59:40.581Z,13.83
2018-10-12T03:02:09.403Z,26.10
2018-10-12T03:04:38.373Z,23.43
2018-10-12T03:07:07.133Z,18.50
2018-10-12T03:09:36.047Z,27.30
2018-10-12T03:12:04.830Z,22.90
2018-10-12T03:14:33.570Z,17.70
2018-10-12T03:17:02.392Z,28.13
2018-10-12T03:19:31.210Z,16.30
2018-10-12T03:21:59.967Z,22.33
2018-10-12T03:24:28.885Z,22.37
2018-10-12T03:26:57.846Z,27.37
2018-10-12T03:29:26.930Z,20.00
2018-10-12T03:31:55.883Z,17.50
2018-10-12T03:34:24.714Z,14.20
2018-10-12T03:36:53.631Z,21.93
2018-10-12T03:39:22.539Z,21.83
2018-10-12T03:41:51.416Z,22.33
2018-10-12T03:44:20.530Z,28.00
2018-10-12T03:46:49.407Z,17.70
2018-10-12T03:49:18.343Z,15.80
2018-10-12T03:51:47.141Z,16.30
2018-10-12T03:54:15.926Z,15.50
2018-10-12T03:56:44.666Z,18.90
2018-10-12T03:59:13.571Z,21.47
2018-10-12T04:01:42.343Z,24.33
2018-10-12T04:04:11.214Z,19.57
2018-10-12T04:06:40.037Z,24.63
2018-10-12T04:09:09.143Z,15.90
2018-10-12T04:11:38.016Z,18.43
2018-10-12T04:14:06.730Z,17.60
2018-10-12T04:16:35.496Z,31.70
2018-10-12T04:19:04.290Z,19.27
2018-10-12T04:21:33.166Z,13.40
2018-10-12T04:24:01.958Z,19.63
2018-10-12T04:26:30.691Z,14.70
2018-10-12T04:28:59.454Z,15.57
2018-10-12T04:31:28.207Z,17.87
2018-10-12T04:33:57.025Z,22.53
2018-10-12T04:36:25.798Z,26.40
2018-10-12T04:40:30.726Z,21.03
2018-10-12T04:42:59.543Z,21.23
2018-10-12T04:45:28.555Z,22.10
2018-10-12T04:47:57.547Z,24.40
2018-10-12T04:50:26.456Z,19.80
2018-10-12T04:52:55.223Z,15.40
2018-10-12T04:55:24.003Z,22.90
2018-10-12T04:57:52.870Z,19.70
2018-10-12T05:00:21.690Z,14.37
2018-10-12T05:02:50.491Z,21.37
2018-10-12T05:05:19.409Z,21.07
2018-10-12T05:07:48.263Z,23.47
2018-10-12T05:10:17.069Z,20.27
2018-10-12T05:12:45.830Z,20.33
2018-10-12T05:15:14.636Z,24.57
2018-10-12T05:17:43.348Z,23.53
2018-10-12T05:20:12.166Z,18.53
2018-10-12T05:22:40.993Z,16.00
2018-10-12T05:25:09.766Z,20.43
2018-10-12T05:27:38.555Z,16.00
2018-10-12T05:30:07.426Z,14.17
2018-10-12T05:32:36.373Z,23.37
2018-10-12T05:35:05.190Z,16.90
2018-10-12T05:37:34.002Z,17.63
2018-10-12T05:40:02.958Z,20.47
2018-10-12T05:42:31.609Z,19.70
2018-10-12T05:45:00.363Z,29.07
2018-10-12T05:47:29.286Z,23.53
2018-10-12T05:50:06.891Z,19.80
2018-10-12T05:52:36.642Z,16.63
2018-10-12T05:55:05.559Z,16.57
2018-10-12T05:57:38.095Z,21.33
2018-10-12T06:00:07.082Z,72.77
2018-10-12T06:02:35.968Z,92.60
2018-10-12T06:05:05.153Z,45.53
2018-10-12T06:07:34.262Z,23.97
2018-10-12T06:10:03.076Z,34.30
2018-10-12T06:12:31.979Z,28.03
2018-10-12T06:15:00.873Z,34.13
2018-10-12T06:17:29.591Z,20.30
2018-10-12T06:19:58.517Z,17.50
2018-10-12T06:22:27.281Z,17.60
2018-10-12T06:24:56.130Z,26.17
2018-10-12T06:27:24.884Z,15.70
2018-10-12T06:29:53.674Z,16.80
2018-10-12T06:32:22.538Z,16.50
2018-10-12T06:34:51.334Z,19.70
2018-10-12T06:37:20.160Z,21.80
2018-10-12T06:39:49.090Z,16.27
2018-10-12T06:42:17.798Z,41.23
2018-10-12T06:44:46.808Z,17.97
2018-10-12T06:47:16.017Z,14.40
2018-10-12T06:49:44.903Z,12.97
2018-10-12T06:52:13.837Z,22.87
2018-10-12T06:54:42.685Z,33.03
2018-10-12T06:57:11.558Z,19.17
2018-10-12T06:59:40.417Z,20.70
2018-10-12T07:02:09.455Z,27.33
2018-10-12T07:04:38.507Z,29.93
2018-10-12T07:07:07.383Z,33.97
2018-10-12T07:09:36.185Z,18.93
2018-10-12T07:12:05.135Z,17.00
2018-10-12T07:14:57.031Z,39.23
2018-10-12T07:17:50.408Z,19.10
2018-10-12T07:20:20.031Z,28.73
2018-10-12T07:22:48.869Z,21.37
2018-10-12T07:25:17.623Z,14.53
2018-10-12T07:27:46.507Z,14.73
2018-10-12T07:30:15.246Z,16.63
2018-10-12T07:32:44.131Z,12.97
2018-10-12T07:35:13.046Z,37.77
2018-10-12T07:37:42.196Z,16.00
2018-10-12T07:40:10.967Z,17.03
2018-10-12T07:42:39.699Z,13.40
2018-10-12T07:45:08.823Z,18.80
2018-10-12T07:47:38.128Z,20.80
2018-10-12T07:50:07.062Z,14.47
2018-10-12T07:52:35.981Z,18.43
2018-10-12T07:55:04.921Z,12.60
2018-10-12T07:57:33.936Z,16.80
2018-10-12T08:00:02.752Z,16.90
2018-10-12T08:02:31.475Z,15.43
2018-10-12T08:05:00.262Z,16.30
2018-10-12T08:07:29.209Z,19.40
2018-10-12T08:09:57.989Z,17.50
2018-10-12T08:12:26.890Z,26.80
2018-10-12T08:14:55.666Z,15.80
2018-10-12T08:17:24.590Z,16.00
2018-10-12T08:19:53.399Z,17.40
2018-10-12T08:22:22.826Z,23.13
2018-10-12T08:24:51.632Z,11.70
2018-10-12T08:27:20.636Z,18.83
2018-10-12T08:29:49.607Z,12.27
2018-10-12T08:32:18.706Z,19.73
2018-10-12T08:34:47.442Z,18.43
2018-10-12T08:37:16.214Z,13.10
2018-10-12T08:39:46.594Z,16.23
2018-10-12T08:42:15.402Z,10.00
2018-10-12T08:44:44.146Z,18.80
2018-10-12T08:47:13.163Z,11.60
2018-10-12T08:49:42.240Z,13.30
2018-10-12T08:52:11.080Z,11.70
2018-10-12T08:54:39.962Z,11.20
2018-10-12T08:57:08.796Z,23.43
2018-10-12T08:59:37.517Z,15.50
2018-10-12T09:02:06.789Z,15.40
2018-10-12T09:04:35.614Z,17.60
2018-10-12T09:07:04.346Z,10.93
2018-10-12T09:09:33.090Z,23.57
2018-10-12T09:12:01.912Z,9.40
2018-10-12T09:14:30.647Z,17.70
2018-10-12T09:16:59.586Z,10.60
2018-10-12T09:19:28.445Z,16.43
2018-10-12T09:21:57.481Z,13.60
2018-10-12T09:24:26.261Z,10.97
2018-10-12T09:26:55.042Z,10.60
2018-10-12T09:29:23.911Z,13.80
2018-10-12T09:31:52.728Z,15.03
2018-10-12T09:34:21.650Z,24.53
2018-10-12T09:36:50.635Z,7.63
2018-10-12T09:39:19.424Z,6.80
2018-10-12T09:41:48.246Z,10.50
2018-10-12T09:44:17.017Z,11.83
2018-10-12T09:46:45.770Z,8.03
2018-10-12T09:49:14.562Z,14.03
2018-10-12T09:51:43.258Z,8.40
2018-10-12T09:54:12.032Z,13.30
2018-10-12T09:56:40.929Z,10.43
2018-10-12T09:59:09.671Z,8.10
2018-10-12T10:01:43.621Z,10.28
2018-10-12T10:04:19.085Z,8.90
2018-10-12T10:06:47.954Z,8.87
2018-10-12T10:09:16.867Z,10.50
2018-10-12T10:11:45.646Z,14.57
2018-10-12T10:14:14.761Z,10.80
2018-10-12T10:16:43.512Z,4.63
2018-10-12T10:19:12.275Z,13.30
2018-10-12T10:21:41.090Z,6.40
2018-10-12T10:24:09.854Z,6.20
2018-10-12T10:26:38.794Z,5.80
2018-10-12T10:29:07.556Z,8.00
2018-10-12T10:31:36.358Z,6.80
2018-10-12T10:34:05.301Z,13.77
2018-10-12T10:36:34.006Z,8.57
2018-10-12T10:39:03.068Z,12.97
2018-10-12T10:41:31.866Z,7.23
2018-10-12T10:44:00.634Z,7.10
2018-10-12T10:46:29.606Z,6.70
2018-10-12T10:48:58.385Z,6.97
2018-10-12T10:51:27.166Z,5.53
2018-10-12T10:53:55.939Z,5.63
2018-10-12T10:56:24.699Z,6.33
2018-10-12T10:58:53.571Z,7.50
2018-10-12T11:01:22.543Z,8.50
2018-10-12T11:03:51.407Z,11.40
2018-10-12T11:06:20.166Z,21.50
2018-10-12T11:08:48.886Z,3.80
2018-10-12T11:11:17.662Z,5.93
2018-10-12T11:13:46.412Z,4.60
2018-10-12T11:16:15.189Z,7.13
2018-10-12T11:18:44.133Z,5.43
2018-10-12T11:21:13.096Z,6.10
2018-10-12T11:23:42.575Z,7.33
2018-10-12T11:26:12.079Z,17.13
2018-10-12T11:28:41.057Z,13.20
2018-10-12T11:31:09.814Z,4.67
2018-10-12T11:33:38.526Z,6.53
2018-10-12T11:36:07.734Z,7.50
2018-10-12T11:38:36.613Z,4.53
2018-10-12T11:41:05.745Z,11.27
2018-10-12T11:43:36.059Z,7.63
2018-10-12T11:46:05.220Z,4.03
2018-10-12T11:48:33.917Z,4.93
2018-10-12T11:51:02.778Z,5.17
2018-10-12T11:53:31.519Z,12.83
2018-10-12T11:56:00.529Z,6.80
2018-10-12T11:58:29.214Z,6.60
2018-10-12T12:00:58.150Z,15.27
2018-10-12T12:03:26.887Z,8.93
2018-10-12T12:05:55.715Z,9.50
2018-10-12T12:08:24.461Z,3.90
2018-10-12T12:10:53.373Z,7.23
2018-10-12T12:13:22.146Z,3.87
2018-10-12T12:15:50.890Z,6.20
2018-10-12T12:18:19.597Z,3.80
2018-10-12T12:20:48.498Z,4.40
2018-10-12T12:23:17.526Z,2.77
2018-10-12T12:25:46.277Z,4.60
2018-10-12T12:28:15.211Z,5.33
2018-10-12T12:30:44.101Z,6.43
2018-10-12T12:33:12.912Z,8.47
2018-10-12T12:35:42.291Z,3.43
2018-10-12T12:38:10.715Z,5.40
2018-10-12T12:40:39.399Z,3.57
2018-10-12T12:43:08.071Z,4.00
2018-10-12T12:45:36.809Z,3.10
2018-10-12T12:48:05.712Z,3.70
2018-10-12T12:50:34.403Z,4.50
2018-10-12T12:53:03.114Z,1.80
2018-10-12T12:55:32.041Z,5.60
2018-10-12T12:58:00.838Z,2.57
2018-10-12T13:00:29.688Z,7.50
2018-10-12T13:02:58.406Z,4.50
2018-10-12T13:05:27.126Z,3.90
2018-10-12T13:07:56.131Z,3.60
2018-10-12T13:10:25.185Z,2.50
2018-10-12T13:12:54.043Z,5.20
2018-10-12T13:15:22.816Z,5.63
2018-10-12T13:17:51.499Z,5.60
2018-10-12T13:20:20.272Z,9.57
2018-10-12T13:22:49.158Z,5.33
2018-10-12T13:25:17.930Z,2.10
2018-10-12T13:27:46.770Z,10.43
2018-10-12T13:30:15.942Z,4.50
2018-10-12T13:32:44.699Z,3.47
2018-10-12T13:35:13.530Z,2.97
2018-10-12T13:37:42.433Z,2.53
2018-10-12T13:40:11.083Z,4.07
2018-10-12T13:42:40.091Z,2.70
2018-10-12T13:45:09.066Z,3.67
2018-10-12T13:47:37.837Z,4.07
2018-10-12T13:50:07.432Z,3.27
2018-10-12T13:52:36.260Z,4.87
2018-10-12T13:55:05.086Z,7.93
2018-10-12T13:57:33.828Z,3.20
2018-10-12T14:00:02.634Z,3.17
2018-10-12T14:02:31.810Z,4.90
2018-10-12T14:05:00.526Z,1.90
2018-10-12T14:07:29.294Z,4.57
2018-10-12T14:09:58.127Z,3.70
2018-10-12T14:12:27.213Z,1.67
2018-10-12T14:14:56.082Z,2.20
2018-10-12T14:17:24.895Z,8.40
2018-10-12T14:19:53.658Z,6.83
2018-10-12T14:22:22.578Z,3.40
2018-10-12T14:24:51.326Z,5.20
2018-10-12T14:27:20.210Z,2.20
2018-10-12T14:29:48.945Z,3.33
2018-10-12T14:32:17.790Z,7.40
2018-10-12T14:34:46.556Z,5.67
2018-10-12T14:37:15.366Z,4.60
2018-10-12T14:39:44.159Z,5.40
2018-10-12T14:42:12.956Z,5.23
2018-10-12T14:44:42.228Z,6.30
2018-10-12T14:47:11.046Z,4.57
2018-10-12T14:49:39.719Z,5.57
2018-10-12T14:52:08.508Z,7.97
2018-10-12T14:54:37.219Z,6.20
2018-10-12T14:57:10.123Z,10.00
2018-10-12T14:59:39.224Z,7.17
2018-10-12T15:02:08.012Z,4.40
2018-10-12T15:04:36.795Z,11.90
2018-10-12T15:07:05.622Z,5.80
2018-10-12T15:09:34.327Z,5.63
2018-10-12T15:12:03.175Z,7.50
2018-10-12T15:15:17.608Z,4.30
2018-10-12T15:17:46.889Z,4.00
2018-10-12T15:20:15.678Z,5.63
2018-10-12T15:22:44.817Z,5.63
2018-10-12T15:25:13.874Z,4.37
2018-10-12T15:27:43.285Z,9.33
2018-10-12T15:30:12.910Z,4.50
2018-10-12T15:32:41.891Z,5.50
2018-10-12T15:35:11.021Z,3.40
2018-10-12T15:37:40.728Z,3.70
2018-10-12T15:40:10.254Z,7.23
2018-10-12T15:42:39.466Z,3.83
2018-10-12T15:45:08.490Z,2.90
2018-10-12T15:47:37.376Z,9.30
2018-10-12T15:50:06.479Z,6.00
2018-10-12T15:52:35.289Z,2.90
2018-10-12T15:55:04.149Z,4.10
2018-10-12T15:57:33.219Z,5.40
2018-10-12T16:00:01.988Z,4.40
2018-10-12T16:02:30.716Z,6.30
2018-10-12T16:04:59.478Z,5.77
2018-10-12T16:07:28.310Z,9.00
2018-10-12T16:09:57.170Z,7.00
2018-10-12T16:12:25.944Z,8.17
2018-10-12T16:14:54.837Z,7.60
2018-10-12T16:17:23.682Z,15.33
2018-10-12T16:19:52.463Z,5.67
2018-10-12T16:22:23.062Z,13.23
2018-10-12T16:25:02.994Z,7.10
2018-10-12T16:27:31.777Z,6.53
2018-10-12T16:30:00.838Z,5.20
2018-10-12T16:32:30.323Z,7.17
2018-10-12T16:34:59.011Z,8.23
2018-10-12T16:37:27.870Z,7.87
2018-10-12T16:39:56.622Z,6.57
2018-10-12T16:42:25.370Z,36.60
2018-10-12T16:44:54.212Z,33.87
2018-10-12T16:47:22.994Z,11.77
2018-10-12T16:49:51.782Z,14.83
2018-10-12T16:52:20.564Z,38.27
2018-10-12T16:54:49.525Z,9.17
2018-10-12T16:57:22.533Z,4.90
2018-10-12T16:59:51.288Z,10.87
2018-10-12T17:02:19.999Z,10.57
2018-10-12T17:04:48.852Z,8.43
2018-10-12T17:07:17.466Z,12.47
2018-10-12T17:09:46.295Z,16.10
2018-10-12T17:12:15.056Z,10.07
2018-10-12T17:14:44.850Z,9.43
2018-10-12T17:17:13.771Z,17.90
2018-10-12T17:19:42.613Z,8.07
2018-10-12T17:22:11.433Z,13.33
2018-10-12T17:24:40.294Z,21.33
2018-10-12T17:27:09.230Z,10.67
2018-10-12T17:29:38.083Z,17.57
2018-10-12T17:32:07.009Z,11.20
2018-10-12T17:34:35.802Z,9.87
2018-10-12T17:37:04.626Z,8.17
2018-10-12T17:39:33.442Z,10.77
2018-10-12T17:42:10.980Z,12.93
2018-10-12T17:44:39.820Z,13.83
2018-10-12T17:47:08.780Z,10.50
2018-10-12T17:49:37.676Z,10.40
2018-10-12T17:52:06.493Z,16.13
2018-10-12T17:54:35.318Z,14.00
2018-10-12T17:57:05.246Z,13.53
2018-10-12T17:59:34.146Z,8.33
2018-10-12T18:02:03.653Z,14.33
2018-10-12T18:04:32.859Z,18.80
2018-10-12T18:07:01.931Z,12.83
2018-10-12T18:09:30.834Z,12.70
2018-10-12T18:11:59.730Z,48.73
2018-10-12T18:14:28.947Z,13.10
2018-10-12T18:16:57.731Z,9.70
2018-10-12T18:19:26.506Z,11.87
2018-10-12T18:21:55.490Z,19.53
2018-10-12T18:24:24.175Z,19.37
2018-10-12T18:26:52.869Z,10.33
2018-10-12T18:29:21.785Z,11.33
2018-10-12T18:31:50.965Z,11.53
2018-10-12T18:34:19.815Z,13.33
2018-10-12T18:36:48.607Z,15.83
2018-10-12T18:39:17.253Z,9.90
2018-10-12T18:41:46.119Z,13.27
2018-10-12T18:44:14.818Z,8.20
2018-10-12T18:46:43.620Z,17.67
2018-10-12T18:49:12.610Z,10.30
2018-10-12T18:51:41.503Z,27.50
2018-10-12T18:54:10.340Z,13.63
2018-10-12T18:56:39.255Z,13.93
2018-10-12T18:59:08.093Z,13.60
2018-10-12T19:01:36.836Z,10.17
2018-10-12T19:04:06.503Z,17.90
2018-10-12T19:06:35.481Z,15.47
2018-10-12T19:09:06.155Z,13.47
2018-10-12T19:11:35.457Z,12.80
2018-10-12T19:14:04.379Z,10.43
2018-10-12T19:16:36.329Z,10.10
2018-10-12T19:19:05.850Z,14.50
2018-10-12T19:21:34.631Z,14.23
2018-10-12T19:24:03.567Z,10.90
2018-10-12T19:26:32.299Z,13.60
2018-10-12T19:29:01.204Z,20.73
2018-10-12T19:31:29.961Z,8.70
2018-10-12T19:33:58.903Z,24.80
2018-10-12T19:36:28.274Z,16.03
2018-10-12T19:38:57.195Z,17.07
2018-10-12T19:41:26.010Z,16.13
2018-10-12T19:43:54.776Z,17.20
2018-10-12T19:46:23.563Z,12.43
2018-10-12T19:48:52.339Z,17.47
2018-10-12T19:51:21.130Z,12.37
2018-10-12T19:53:49.908Z,13.77
2018-10-12T19:56:18.734Z,16.20
2018-10-12T19:58:47.483Z,17.20
2018-10-12T20:01:16.574Z,21.07
2018-10-12T20:03:45.436Z,9.27
2018-10-12T20:06:14.175Z,13.73
2018-10-12T20:08:42.958Z,21.50
2018-10-12T20:11:11.887Z,16.17
2018-10-12T20:13:40.672Z,10.70
2018-10-12T20:16:09.422Z,9.93
2018-10-12T20:18:38.226Z,16.30
2018-10-12T20:21:07.368Z,18.27
2018-10-12T20:23:36.210Z,19.70
2018-10-12T20:26:05.084Z,11.30
2018-10-12T20:28:33.826Z,12.03
2018-10-12T20:31:02.692Z,13.90
2018-10-12T20:33:31.691Z,10.20
2018-10-12T20:36:00.410Z,23.23
2018-10-12T20:38:29.375Z,18.33
2018-10-12T20:40:58.281Z,11.40
2018-10-12T20:43:27.092Z,11.33
2018-10-12T20:45:55.909Z,21.63
2018-10-12T20:48:24.731Z,13.27
2018-10-12T20:50:53.475Z,19.03
2018-10-12T20:53:22.389Z,20.93
2018-10-12T20:55:51.206Z,15.17
2018-10-12T20:58:20.019Z,13.57
2018-10-12T21:00:48.727Z,15.20
2018-10-12T21:03:17.565Z,12.70
2018-10-12T21:05:46.431Z,14.50
2018-10-12T21:08:14.962Z,13.90
2018-10-12T21:10:43.726Z,100.00
2018-10-12T21:13:12.464Z,22.20
2018-10-12T21:15:41.399Z,11.83
2018-10-12T21:18:10.234Z,23.37
2018-10-12T21:20:39.021Z,22.73
2018-10-12T21:23:07.774Z,15.50
2018-10-12T21:25:36.608Z,17.73
2018-10-12T21:28:05.463Z,11.27
2018-10-12T21:30:34.193Z,13.37
2018-10-12T21:33:03.028Z,19.93
2018-10-12T21:35:31.761Z,14.87
2018-10-12T21:38:00.714Z,16.77
2018-10-12T21:40:29.483Z,11.53
2018-10-12T21:42:58.389Z,16.10
2018-10-12T21:45:27.314Z,18.00
2018-10-12T21:47:56.283Z,12.13
2018-10-12T21:50:25.245Z,13.63
2018-10-12T21:52:54.031Z,9.67
2018-10-12T21:55:22.802Z,12.63
2018-10-12T21:57:51.735Z,16.80
2018-10-12T22:00:20.502Z,19.07
2018-10-12T22:02:49.202Z,21.83
2018-10-12T22:05:18.060Z,26.07
2018-10-12T22:07:46.791Z,16.47
2018-10-12T22:10:15.703Z,31.67
2018-10-12T22:12:44.470Z,38.33
2018-10-12T22:15:13.452Z,19.10
2018-10-12T22:17:42.253Z,29.50
2018-10-12T22:20:11.176Z,17.17
2018-10-12T22:22:40.133Z,13.97
2018-10-12T22:25:08.927Z,18.43
2018-10-12T22:27:37.929Z,23.27
2018-10-12T22:30:07.572Z,21.00
2018-10-12T22:32:36.386Z,18.27
2018-10-12T22:35:05.247Z,68.97
2018-10-12T22:37:34.104Z,48.07
2018-10-12T22:40:02.846Z,40.90
2018-10-12T22:42:31.646Z,72.97
2018-10-12T22:45:00.473Z,156.47
2018-10-12T22:47:29.428Z,87.60
2018-10-12T22:49:58.453Z,151.00
2018-10-12T22:52:27.262Z,181.80
2018-10-12T22:54:56.185Z,305.80
2018-10-12T22:57:24.966Z,137.77
2018-10-12T22:59:53.720Z,50.73
2018-10-12T23:02:22.622Z,69.03
2018-10-12T23:04:51.652Z,47.37
2018-10-12T23:07:20.614Z,95.43
2018-10-12T23:09:49.568Z,210.57
2018-10-12T23:12:18.576Z,358.40
2018-10-12T23:14:47.417Z,177.47
2018-10-12T23:17:16.394Z,33.70
2018-10-12T23:19:45.214Z,86.53
2018-10-12T23:22:14.058Z,51.03
2018-10-12T23:24:42.951Z,519.90
2018-10-12T23:27:11.735Z,473.07
2018-10-12T23:29:40.818Z,380.50
2018-10-12T23:32:09.627Z,474.73
2018-10-12T23:34:38.434Z,647.90
2018-10-12T23:37:07.641Z,311.27
2018-10-12T23:39:36.364Z,315.23
2018-10-12T23:42:05.184Z,749.73
2018-10-12T23:44:34.000Z,489.63
2018-10-12T23:47:02.785Z,208.63
2018-10-12T23:49:31.728Z,300.97
2018-10-12T23:52:00.532Z,516.73
2018-10-12T23:54:29.409Z,72.03
2018-10-12T23:56:58.309Z,52.57
2018-10-12T23:59:27.773Z,577.77
